createdAt,value
2023-01-17T02:56:49.145Z,977.27
2023-01-17T02:57:49.075Z,977.23
2023-01-17T02:58:49.065Z,977.25
2023-01-17T02:59:49.052Z,977.14
2023-01-17T03:00:49.183Z,977.15
2023-01-17T03:01:49.369Z,977.20
2023-01-17T03:02:49.050Z,977.10
2023-01-17T03:03:49.004Z,977.11
2023-01-17T03:04:49.051Z,977.12
2023-01-17T03:05:48.994Z,977.09
2023-01-17T03:06:48.992Z,977.12
2023-01-17T03:07:54.046Z,977.11
2023-01-17T03:08:48.986Z,977.13
2023-01-17T03:09:48.953Z,977.05
2023-01-17T03:10:48.934Z,977.12
2023-01-17T03:11:48.938Z,977.15
2023-01-17T03:12:48.956Z,977.19
2023-01-17T03:13:48.894Z,977.14
2023-01-17T03:14:48.893Z,977.11
2023-01-17T03:15:48.927Z,977.12
2023-01-17T03:16:48.921Z,977.08
2023-01-17T03:17:48.873Z,977.17
2023-01-17T03:18:53.939Z,977.18
2023-01-17T03:19:48.829Z,977.15
2023-01-17T03:20:48.931Z,977.18
2023-01-17T03:21:48.812Z,977.18
2023-01-17T03:22:48.802Z,977.18
2023-01-17T03:23:48.792Z,977.21
2023-01-17T03:24:48.872Z,977.18
2023-01-17T03:25:48.775Z,977.08
2023-01-17T03:26:48.747Z,977.18
2023-01-17T03:27:48.779Z,977.17
2023-01-17T03:28:48.882Z,977.09
2023-01-17T03:29:53.761Z,977.14
2023-01-17T03:30:48.755Z,977.15
2023-01-17T03:31:48.695Z,977.14
2023-01-17T03:32:48.685Z,977.18
2023-01-17T03:33:48.670Z,977.15
2023-01-17T03:34:48.681Z,977.24
2023-01-17T03:35:48.705Z,977.21
2023-01-17T03:36:48.632Z,977.15
2023-01-17T03:37:48.662Z,977.21
2023-01-17T03:38:48.616Z,977.27
2023-01-17T03:39:48.660Z,977.26
2023-01-17T03:40:53.706Z,977.29
2023-01-17T03:41:48.612Z,977.34
2023-01-17T03:42:48.582Z,977.32
2023-01-17T03:43:48.582Z,977.34
2023-01-17T03:44:48.566Z,977.33
2023-01-17T03:45:48.595Z,977.28
2023-01-17T03:46:48.528Z,977.31
2023-01-17T03:47:48.630Z,977.32
2023-01-17T03:48:48.523Z,977.29
2023-01-17T03:49:48.487Z,977.34
2023-01-17T03:50:48.511Z,977.30
2023-01-17T03:51:53.514Z,977.30
2023-01-17T03:52:48.476Z,977.28
2023-01-17T03:53:48.489Z,977.36
2023-01-17T03:54:48.485Z,977.35
2023-01-17T03:55:48.433Z,977.34
2023-01-17T03:56:48.421Z,977.32
2023-01-17T03:57:48.431Z,977.37
2023-01-17T03:58:48.462Z,977.39
2023-01-17T03:59:48.381Z,977.39
2023-01-17T04:00:48.462Z,977.32
2023-01-17T04:01:48.493Z,977.32
2023-01-17T04:02:53.510Z,977.37
2023-01-17T04:03:48.330Z,977.33
2023-01-17T04:04:48.326Z,977.34
2023-01-17T04:05:48.346Z,977.38
2023-01-17T04:06:48.296Z,977.35
2023-01-17T04:07:48.286Z,977.38
2023-01-17T04:08:48.288Z,977.35
2023-01-17T04:09:48.273Z,977.36
2023-01-17T04:10:48.273Z,977.38
2023-01-17T04:11:48.247Z,977.40
2023-01-17T04:12:48.236Z,977.45
2023-01-17T04:13:53.310Z,977.46
2023-01-17T04:14:48.243Z,977.47
2023-01-17T04:15:48.195Z,977.46
2023-01-17T04:16:48.289Z,977.47
2023-01-17T04:17:48.210Z,977.44
2023-01-17T04:18:48.174Z,977.43
2023-01-17T04:19:48.189Z,977.51
2023-01-17T04:20:48.156Z,977.47
2023-01-17T04:21:48.210Z,977.42
2023-01-17T04:22:48.168Z,977.43
2023-01-17T04:23:48.121Z,977.44
2023-01-17T04:24:53.199Z,977.40
2023-01-17T04:25:48.098Z,977.44
2023-01-17T04:26:48.092Z,977.45
2023-01-17T04:27:48.064Z,977.39
2023-01-17T04:28:48.093Z,977.43
2023-01-17T04:29:48.042Z,977.33
2023-01-17T04:30:48.054Z,977.33
2023-01-17T04:31:48.045Z,977.35
2023-01-17T04:32:48.027Z,977.36
2023-01-17T04:33:48.039Z,977.39
2023-01-17T04:34:47.985Z,977.33
2023-01-17T04:35:53.001Z,977.36
2023-01-17T04:36:47.982Z,977.35
2023-01-17T04:37:47.997Z,977.40
2023-01-17T04:38:47.947Z,977.38
2023-01-17T04:39:48.017Z,977.35
2023-01-17T04:40:47.925Z,977.35
2023-01-17T04:41:47.919Z,977.34
2023-01-17T04:42:48.855Z,977.33
2023-01-17T04:43:48.037Z,977.33
2023-01-17T04:44:47.869Z,977.26
2023-01-17T04:45:47.962Z,977.19
2023-01-17T04:46:52.971Z,977.16
2023-01-17T04:47:47.854Z,977.20
2023-01-17T04:48:47.859Z,977.25
2023-01-17T04:49:47.878Z,977.32
2023-01-17T04:50:47.811Z,977.38
2023-01-17T04:51:47.799Z,977.33
2023-01-17T04:52:47.778Z,977.46
2023-01-17T04:53:47.774Z,977.49
2023-01-17T04:54:47.791Z,977.46
2023-01-17T04:55:47.856Z,977.43
2023-01-17T04:56:47.820Z,977.42
2023-01-17T04:57:52.751Z,977.43
2023-01-17T04:58:47.729Z,977.45
2023-01-17T04:59:47.731Z,977.52
2023-01-17T05:00:47.792Z,977.47
2023-01-17T05:01:47.722Z,977.48
2023-01-17T05:02:48.149Z,977.47
2023-01-17T05:03:47.668Z,977.45
2023-01-17T05:04:47.723Z,977.51
2023-01-17T05:05:47.691Z,977.44
2023-01-17T05:06:47.624Z,977.49
2023-01-17T05:07:47.626Z,977.43
2023-01-17T05:08:52.633Z,977.47
2023-01-17T05:09:47.597Z,977.48
2023-01-17T05:10:47.586Z,977.49
2023-01-17T05:11:47.576Z,977.49
2023-01-17T05:12:47.834Z,977.53
2023-01-17T05:13:47.555Z,977.58
2023-01-17T05:14:47.534Z,977.53
2023-01-17T05:15:47.636Z,977.57
2023-01-17T05:16:47.516Z,977.59
2023-01-17T05:17:47.497Z,977.59
2023-01-17T05:18:47.523Z,977.55
2023-01-17T05:19:52.532Z,977.56
2023-01-17T05:20:47.547Z,977.53
2023-01-17T05:21:47.481Z,977.44
2023-01-17T05:22:47.488Z,977.55
2023-01-17T05:23:47.472Z,977.55
2023-01-17T05:24:47.436Z,977.56
2023-01-17T05:25:47.406Z,977.57
2023-01-17T05:26:49.631Z,977.60
2023-01-17T05:27:48.002Z,977.54
2023-01-17T05:28:47.420Z,977.53
2023-01-17T05:29:47.359Z,977.56
2023-01-17T05:30:52.422Z,977.54
2023-01-17T05:31:47.339Z,977.55
2023-01-17T05:32:48.273Z,977.56
2023-01-17T05:33:47.334Z,977.46
2023-01-17T05:34:47.299Z,977.51
2023-01-17T05:35:47.315Z,977.48
2023-01-17T05:36:47.304Z,977.57
2023-01-17T05:37:47.307Z,977.56
2023-01-17T05:38:47.284Z,977.55
2023-01-17T05:39:47.257Z,977.55
2023-01-17T05:40:47.250Z,977.59
2023-01-17T05:41:52.247Z,977.57
2023-01-17T05:42:47.236Z,977.57
2023-01-17T05:43:47.221Z,977.63
2023-01-17T05:44:47.204Z,977.53
2023-01-17T05:45:47.178Z,977.55
2023-01-17T05:46:47.170Z,977.60
2023-01-17T05:47:47.194Z,977.53
2023-01-17T05:48:47.174Z,977.58
2023-01-17T05:49:47.186Z,977.59
2023-01-17T05:50:47.173Z,977.51
2023-01-17T05:51:47.225Z,977.55
2023-01-17T05:52:52.322Z,977.50
2023-01-17T05:53:47.135Z,977.54
2023-01-17T05:54:47.205Z,977.48
2023-01-17T05:55:47.094Z,977.46
2023-01-17T05:56:47.057Z,977.50
2023-01-17T05:57:47.050Z,977.48
2023-01-17T05:58:47.033Z,977.50
2023-01-17T05:59:47.033Z,977.50
2023-01-17T06:00:47.163Z,977.47
2023-01-17T06:01:46.996Z,977.48
2023-01-17T06:02:47.044Z,977.44
2023-01-17T06:03:51.996Z,977.43
2023-01-17T06:04:47.028Z,977.46
2023-01-17T06:05:46.971Z,977.40
2023-01-17T06:06:46.941Z,977.37
2023-01-17T06:07:46.952Z,977.35
2023-01-17T06:08:46.956Z,977.33
2023-01-17T06:09:46.912Z,977.42
2023-01-17T06:10:46.904Z,977.36
2023-01-17T06:11:46.927Z,977.33
2023-01-17T06:12:46.909Z,977.32
2023-01-17T06:13:46.859Z,977.31
2023-01-17T06:14:51.892Z,977.32
2023-01-17T06:15:46.898Z,977.29
2023-01-17T06:16:46.832Z,977.26
2023-01-17T06:17:46.826Z,977.34
2023-01-17T06:18:46.807Z,977.33
2023-01-17T06:19:46.857Z,977.33
2023-01-17T06:20:46.793Z,977.35
2023-01-17T06:21:46.788Z,977.38
2023-01-17T06:22:46.775Z,977.36
2023-01-17T06:23:46.787Z,977.41
2023-01-17T06:24:46.751Z,977.35
2023-01-17T06:25:51.766Z,977.41
2023-01-17T06:26:46.807Z,977.40
2023-01-17T06:27:46.724Z,977.35
2023-01-17T06:28:46.781Z,977.37
2023-01-17T06:29:46.732Z,977.37
2023-01-17T06:30:46.787Z,977.41
2023-01-17T06:31:46.769Z,977.32
2023-01-17T06:32:46.647Z,977.37
2023-01-17T06:33:46.671Z,977.39
2023-01-17T06:34:46.633Z,977.30
2023-01-17T06:35:46.678Z,977.36
2023-01-17T06:36:51.852Z,977.35
2023-01-17T06:37:46.640Z,977.30
2023-01-17T06:38:46.604Z,977.30
2023-01-17T06:39:46.624Z,977.29
2023-01-17T06:40:46.655Z,977.22
2023-01-17T06:41:46.551Z,977.30
2023-01-17T06:42:46.578Z,977.22
2023-01-17T06:43:46.536Z,977.16
2023-01-17T06:44:46.554Z,977.23
2023-01-17T06:45:46.639Z,977.17
2023-01-17T06:46:46.529Z,977.20
2023-01-17T06:47:51.510Z,977.23
2023-01-17T06:48:46.465Z,977.30
2023-01-17T06:49:46.480Z,977.26
2023-01-17T06:50:46.520Z,977.33
2023-01-17T06:51:46.444Z,977.24
2023-01-17T06:52:46.484Z,977.23
2023-01-17T06:53:46.482Z,977.17
2023-01-17T06:54:46.441Z,977.23
2023-01-17T06:55:46.581Z,977.21
2023-01-17T06:56:46.404Z,977.30
2023-01-17T06:57:46.366Z,977.30
2023-01-17T06:58:51.421Z,977.31
2023-01-17T06:59:46.380Z,977.23
2023-01-17T07:00:46.571Z,977.27
2023-01-17T07:01:47.334Z,977.24
2023-01-17T07:02:46.307Z,977.21
2023-01-17T07:03:46.382Z,977.19
2023-01-17T07:04:46.313Z,977.18
2023-01-17T07:05:46.322Z,977.19
2023-01-17T07:06:46.282Z,977.17
2023-01-17T07:07:46.266Z,977.16
2023-01-17T07:08:46.253Z,977.19
2023-01-17T07:09:51.276Z,977.24
2023-01-17T07:10:46.303Z,977.23
2023-01-17T07:11:46.248Z,977.26
2023-01-17T07:12:46.197Z,977.27
2023-01-17T07:13:46.263Z,977.22
2023-01-17T07:14:46.199Z,977.25
2023-01-17T07:15:46.280Z,977.22
2023-01-17T07:16:46.296Z,977.21
2023-01-17T07:17:46.161Z,977.27
2023-01-17T07:18:46.212Z,977.26
2023-01-17T07:19:46.148Z,977.21
2023-01-17T07:20:51.165Z,977.26
2023-01-17T07:21:46.098Z,977.16
2023-01-17T07:22:46.113Z,977.12
2023-01-17T07:23:46.175Z,977.11
2023-01-17T07:24:46.108Z,977.15
2023-01-17T07:25:46.072Z,977.13
2023-01-17T07:26:46.043Z,977.09
2023-01-17T07:27:46.055Z,977.09
2023-01-17T07:28:46.036Z,977.06
2023-01-17T07:29:46.060Z,977.03
2023-01-17T07:30:46.037Z,977.03
2023-01-17T07:31:51.060Z,976.99
2023-01-17T07:32:46.040Z,976.97
2023-01-17T07:33:45.996Z,976.96
2023-01-17T07:34:45.959Z,977.03
2023-01-17T07:35:45.990Z,977.01
2023-01-17T07:36:45.987Z,976.97
2023-01-17T07:37:45.925Z,976.99
2023-01-17T07:38:45.913Z,977.02
2023-01-17T07:39:45.903Z,976.93
2023-01-17T07:40:45.915Z,976.92
2023-01-17T07:41:45.908Z,976.94
2023-01-17T07:42:50.907Z,976.92
2023-01-17T07:43:45.857Z,976.85
2023-01-17T07:44:45.850Z,976.89
2023-01-17T07:45:45.843Z,976.84
2023-01-17T07:46:45.853Z,976.90
2023-01-17T07:47:45.809Z,976.91
2023-01-17T07:48:45.832Z,976.90
2023-01-17T07:49:45.798Z,976.88
2023-01-17T07:50:48.142Z,976.85
2023-01-17T07:51:45.786Z,976.81
2023-01-17T07:52:45.758Z,976.78
2023-01-17T07:53:50.763Z,976.81
2023-01-17T07:54:45.746Z,976.85
2023-01-17T07:55:45.729Z,976.80
2023-01-17T07:56:45.734Z,976.79
2023-01-17T07:57:45.774Z,976.69
2023-01-17T07:58:45.734Z,976.74
2023-01-17T07:59:45.676Z,976.77
2023-01-17T08:00:45.766Z,976.73
2023-01-17T08:01:45.805Z,976.75
2023-01-17T08:02:45.714Z,976.71
2023-01-17T08:03:45.655Z,976.73
2023-01-17T08:04:50.699Z,976.76
2023-01-17T08:05:45.696Z,976.73
2023-01-17T08:06:45.597Z,976.74
2023-01-17T08:07:45.582Z,976.77
2023-01-17T08:08:45.599Z,976.75
2023-01-17T08:09:45.568Z,976.76
2023-01-17T08:10:45.633Z,976.70
2023-01-17T08:11:45.627Z,976.71
2023-01-17T08:12:45.546Z,976.74
2023-01-17T08:13:45.512Z,976.69
2023-01-17T08:14:45.536Z,976.67
2023-01-17T08:15:50.521Z,976.69
2023-01-17T08:16:45.587Z,976.70
2023-01-17T08:17:45.487Z,976.64
2023-01-17T08:18:45.499Z,976.70
2023-01-17T08:19:45.456Z,976.69
2023-01-17T08:20:45.477Z,976.60
2023-01-17T08:21:45.446Z,976.69
2023-01-17T08:22:45.409Z,976.60
2023-01-17T08:23:45.408Z,976.66
2023-01-17T08:24:45.383Z,976.67
2023-01-17T08:25:45.551Z,976.66
2023-01-17T08:26:50.414Z,976.63
2023-01-17T08:27:45.359Z,976.71
2023-01-17T08:28:45.376Z,976.72
2023-01-17T08:29:45.326Z,976.70
2023-01-17T08:30:45.340Z,976.68
2023-01-17T08:31:45.377Z,976.70
2023-01-17T08:32:45.346Z,976.62
2023-01-17T08:33:45.294Z,976.68
2023-01-17T08:34:45.299Z,976.68
2023-01-17T08:35:45.272Z,976.62
2023-01-17T08:36:45.259Z,976.61
2023-01-17T08:37:50.299Z,976.62
2023-01-17T08:38:45.251Z,976.62
2023-01-17T08:39:45.247Z,976.55
2023-01-17T08:40:45.229Z,976.58
2023-01-17T08:41:45.281Z,976.51
2023-01-17T08:42:45.221Z,976.54
2023-01-17T08:43:45.213Z,976.58
2023-01-17T08:44:45.169Z,976.62
2023-01-17T08:45:45.242Z,976.58
2023-01-17T08:46:45.223Z,976.57
2023-01-17T08:47:45.152Z,976.55
2023-01-17T08:48:50.165Z,976.55
2023-01-17T08:49:45.119Z,976.56
2023-01-17T08:50:45.111Z,976.57
2023-01-17T08:51:45.083Z,976.56
2023-01-17T08:52:45.076Z,976.63
2023-01-17T08:53:45.066Z,976.64
2023-01-17T08:54:45.063Z,976.60
2023-01-17T08:55:45.043Z,976.62
2023-01-17T08:56:45.087Z,976.60
2023-01-17T08:57:45.044Z,976.59
2023-01-17T08:58:45.013Z,976.61
2023-01-17T08:59:50.019Z,976.63
2023-01-17T09:00:45.092Z,976.64
2023-01-17T09:01:45.139Z,976.65
2023-01-17T09:02:45.012Z,976.69
2023-01-17T09:03:44.961Z,976.65
2023-01-17T09:04:44.936Z,976.63
2023-01-17T09:05:44.960Z,976.65
2023-01-17T09:06:44.910Z,976.69
2023-01-17T09:07:44.911Z,976.73
2023-01-17T09:08:46.423Z,976.74
2023-01-17T09:09:44.896Z,976.75
2023-01-17T09:10:49.889Z,976.76
2023-01-17T09:11:44.902Z,976.82
2023-01-17T09:12:44.895Z,976.77
2023-01-17T09:13:44.840Z,976.81
2023-01-17T09:14:44.820Z,976.81
2023-01-17T09:15:44.854Z,976.82
2023-01-17T09:16:44.878Z,976.81
2023-01-17T09:17:44.840Z,976.77
2023-01-17T09:18:44.807Z,976.79
2023-01-17T09:19:44.775Z,976.83
2023-01-17T09:20:44.770Z,976.77
2023-01-17T09:21:49.783Z,976.75
2023-01-17T09:22:46.160Z,976.82
2023-01-17T09:23:44.720Z,976.79
2023-01-17T09:24:44.720Z,976.76
2023-01-17T09:25:44.779Z,976.78
2023-01-17T09:26:44.738Z,976.75
2023-01-17T09:27:44.706Z,976.75
2023-01-17T09:28:44.752Z,976.77
2023-01-17T09:29:44.673Z,976.77
2023-01-17T09:30:44.682Z,976.84
2023-01-17T09:31:44.635Z,976.79
2023-01-17T09:32:49.669Z,976.83
2023-01-17T09:33:44.641Z,976.71
2023-01-17T09:34:44.617Z,976.76
2023-01-17T09:35:44.608Z,976.74
2023-01-17T09:36:44.577Z,976.74
2023-01-17T09:37:44.598Z,976.75
2023-01-17T09:38:44.553Z,976.77
2023-01-17T09:39:44.595Z,976.86
2023-01-17T09:40:44.552Z,976.90
2023-01-17T09:41:44.519Z,976.87
2023-01-17T09:42:44.533Z,976.86
2023-01-17T09:43:49.534Z,976.87
2023-01-17T09:44:44.481Z,976.91
2023-01-17T09:45:44.501Z,976.84
2023-01-17T09:46:44.487Z,976.89
2023-01-17T09:47:44.461Z,976.85
2023-01-17T09:48:44.436Z,976.88
2023-01-17T09:49:44.437Z,976.91
2023-01-17T09:50:44.442Z,976.90
2023-01-17T09:51:44.402Z,976.91
2023-01-17T09:52:44.399Z,976.91
2023-01-17T09:53:44.385Z,976.93
2023-01-17T09:54:49.405Z,976.91
2023-01-17T09:55:44.367Z,976.92
2023-01-17T09:56:44.365Z,976.95
2023-01-17T09:57:44.358Z,976.91
2023-01-17T09:58:44.334Z,976.92
2023-01-17T09:59:45.700Z,976.94
2023-01-17T10:00:44.307Z,976.90
2023-01-17T10:01:44.477Z,977.00
2023-01-17T10:02:44.533Z,977.03
2023-01-17T10:03:44.347Z,976.96
2023-01-17T10:04:44.387Z,976.92
2023-01-17T10:05:49.324Z,976.95
2023-01-17T10:06:44.304Z,976.93
2023-01-17T10:07:44.376Z,976.98
2023-01-17T10:08:45.341Z,976.92
2023-01-17T10:09:44.207Z,976.94
2023-01-17T10:10:44.228Z,976.88
2023-01-17T10:11:44.207Z,976.85
2023-01-17T10:12:44.166Z,976.95
2023-01-17T10:13:44.187Z,976.96
2023-01-17T10:14:44.158Z,976.95
2023-01-17T10:15:44.166Z,976.98
2023-01-17T10:16:49.251Z,976.95
2023-01-17T10:17:44.147Z,977.01
2023-01-17T10:18:44.169Z,976.90
2023-01-17T10:19:44.093Z,977.00
2023-01-17T10:20:44.083Z,976.97
2023-01-17T10:21:44.094Z,976.97
2023-01-17T10:22:44.069Z,976.97
2023-01-17T10:23:44.053Z,976.98
2023-01-17T10:24:44.042Z,976.96
2023-01-17T10:25:44.056Z,976.94
2023-01-17T10:26:44.026Z,976.92
2023-01-17T10:27:49.026Z,976.93
2023-01-17T10:28:44.003Z,976.89
2023-01-17T10:29:43.988Z,976.91
2023-01-17T10:30:44.012Z,976.93
2023-01-17T10:31:43.971Z,976.95
2023-01-17T10:32:43.940Z,976.84
2023-01-17T10:33:43.945Z,976.84
2023-01-17T10:34:43.926Z,976.85
2023-01-17T10:35:43.910Z,976.89
2023-01-17T10:36:43.902Z,976.96
2023-01-17T10:37:43.920Z,976.91
2023-01-17T10:38:48.912Z,976.91
2023-01-17T10:39:43.868Z,976.89
2023-01-17T10:40:43.885Z,976.88
2023-01-17T10:41:43.898Z,976.90
2023-01-17T10:42:43.841Z,976.84
2023-01-17T10:43:43.833Z,976.87
2023-01-17T10:44:43.853Z,976.84
2023-01-17T10:45:43.944Z,976.82
2023-01-17T10:46:43.799Z,976.77
2023-01-17T10:47:43.806Z,976.84
2023-01-17T10:48:43.778Z,976.78
2023-01-17T10:49:48.773Z,976.85
2023-01-17T10:50:43.931Z,976.80
2023-01-17T10:51:43.744Z,976.80
2023-01-17T10:52:43.727Z,976.74
2023-01-17T10:53:43.736Z,976.77
2023-01-17T10:54:43.705Z,976.77
2023-01-17T10:55:43.684Z,976.76
2023-01-17T10:56:43.693Z,976.79
2023-01-17T10:57:43.672Z,976.68
2023-01-17T10:58:43.667Z,976.70
2023-01-17T10:59:43.638Z,976.68
2023-01-17T11:00:48.770Z,976.70
2023-01-17T11:01:43.727Z,976.67
2023-01-17T11:02:43.664Z,976.62
2023-01-17T11:03:43.600Z,976.70
2023-01-17T11:04:43.605Z,976.66
2023-01-17T11:05:43.573Z,976.70
2023-01-17T11:06:57.345Z,976.68
2023-01-17T11:07:44.643Z,976.66
2023-01-17T11:08:43.559Z,976.70
2023-01-17T11:09:43.564Z,976.58
2023-01-17T11:10:43.543Z,976.62
2023-01-17T11:11:48.527Z,976.59
2023-01-17T11:12:43.496Z,976.57
2023-01-17T11:13:43.533Z,976.60
2023-01-17T11:14:43.483Z,976.51
2023-01-17T11:15:43.515Z,976.47
2023-01-17T11:16:43.462Z,976.44
2023-01-17T11:17:43.442Z,976.42
2023-01-17T11:18:43.425Z,976.37
2023-01-17T11:19:43.505Z,976.34
2023-01-17T11:20:43.418Z,976.36
2023-01-17T11:21:45.070Z,976.35
2023-01-17T11:22:48.409Z,976.37
2023-01-17T11:23:43.376Z,976.37
2023-01-17T11:24:43.381Z,976.31
2023-01-17T11:25:43.372Z,976.25
2023-01-17T11:26:43.354Z,976.30
2023-01-17T11:27:43.322Z,976.31
2023-01-17T11:28:43.311Z,976.32
2023-01-17T11:29:43.319Z,976.22
2023-01-17T11:30:43.307Z,976.20
2023-01-17T11:31:43.276Z,976.19
2023-01-17T11:32:43.290Z,976.23
2023-01-17T11:33:48.317Z,976.26
2023-01-17T11:34:43.264Z,976.29
2023-01-17T11:35:43.232Z,976.23
2023-01-17T11:36:43.257Z,976.20
2023-01-17T11:37:43.212Z,976.14
2023-01-17T11:38:43.198Z,976.12
2023-01-17T11:39:44.419Z,976.17
2023-01-17T11:40:43.180Z,976.21
2023-01-17T11:41:43.192Z,976.10
2023-01-17T11:42:43.157Z,976.09
2023-01-17T11:43:43.145Z,976.12
2023-01-17T11:44:48.179Z,975.95
2023-01-17T11:45:43.122Z,976.01
2023-01-17T11:46:43.188Z,975.98
2023-01-17T11:47:43.103Z,976.00
2023-01-17T11:48:43.101Z,975.93
2023-01-17T11:49:43.163Z,975.94
2023-01-17T11:50:43.068Z,975.94
2023-01-17T11:51:43.094Z,975.95
2023-01-17T11:52:43.063Z,975.97
2023-01-17T11:53:43.029Z,975.93
2023-01-17T11:54:43.059Z,975.90
2023-01-17T11:55:48.042Z,975.92
2023-01-17T11:56:43.113Z,975.83
2023-01-17T11:57:43.009Z,975.83
2023-01-17T11:58:43.260Z,975.80
2023-01-17T11:59:42.978Z,975.84
2023-01-17T12:00:42.957Z,975.86
2023-01-17T12:01:43.024Z,975.80
2023-01-17T12:02:42.936Z,975.79
2023-01-17T12:03:43.014Z,975.72
2023-01-17T12:04:43.024Z,975.72
2023-01-17T12:05:42.910Z,975.72
2023-01-17T12:06:57.190Z,975.68
2023-01-17T12:07:43.873Z,975.64
2023-01-17T12:08:42.862Z,975.56
2023-01-17T12:09:42.877Z,975.58
2023-01-17T12:10:42.848Z,975.49
2023-01-17T12:11:42.837Z,975.56
2023-01-17T12:12:42.825Z,975.56
2023-01-17T12:13:42.838Z,975.63
2023-01-17T12:14:42.803Z,975.53
2023-01-17T12:15:42.841Z,975.46
2023-01-17T12:16:42.789Z,975.56
2023-01-17T12:17:47.785Z,975.54
2023-01-17T12:18:42.751Z,975.55
2023-01-17T12:19:42.759Z,975.57
2023-01-17T12:20:42.761Z,975.54
2023-01-17T12:21:42.722Z,975.51
2023-01-17T12:22:42.705Z,975.48
2023-01-17T12:23:42.711Z,975.46
2023-01-17T12:24:42.686Z,975.43
2023-01-17T12:25:42.685Z,975.45
2023-01-17T12:26:42.677Z,975.46
2023-01-17T12:27:43.552Z,975.47
2023-01-17T12:28:47.691Z,975.46
2023-01-17T12:29:42.631Z,975.45
2023-01-17T12:30:42.626Z,975.48
2023-01-17T12:31:42.605Z,975.49
2023-01-17T12:32:42.602Z,975.47
2023-01-17T12:33:42.579Z,975.43
2023-01-17T12:34:42.575Z,975.42
2023-01-17T12:35:42.566Z,975.41
2023-01-17T12:36:42.550Z,975.38
2023-01-17T12:37:42.540Z,975.41
2023-01-17T12:38:42.524Z,975.37
2023-01-17T12:39:47.538Z,975.40
2023-01-17T12:40:42.528Z,975.30
2023-01-17T12:41:42.489Z,975.30
2023-01-17T12:42:42.479Z,975.25
2023-01-17T12:43:42.471Z,975.17
2023-01-17T12:44:42.479Z,975.19
2023-01-17T12:45:42.463Z,975.16
2023-01-17T12:46:42.499Z,975.11
2023-01-17T12:47:42.426Z,975.12
2023-01-17T12:48:42.414Z,975.08
2023-01-17T12:49:42.409Z,975.10
2023-01-17T12:50:47.491Z,975.03
2023-01-17T12:51:42.387Z,975.11
2023-01-17T12:52:42.370Z,975.06
2023-01-17T12:53:42.352Z,975.12
2023-01-17T12:54:42.341Z,975.04
2023-01-17T12:55:42.349Z,975.03
2023-01-17T12:56:42.321Z,975.09
2023-01-17T12:57:42.306Z,975.05
2023-01-17T12:58:42.297Z,975.05
2023-01-17T12:59:42.291Z,975.03
2023-01-17T13:00:42.355Z,974.98
2023-01-17T13:01:47.531Z,974.99
2023-01-17T13:02:42.257Z,975.01
2023-01-17T13:03:42.240Z,975.00
2023-01-17T13:04:57.791Z,974.93
2023-01-17T13:05:43.265Z,974.93
2023-01-17T13:06:42.212Z,974.99
2023-01-17T13:07:42.193Z,974.94
2023-01-17T13:08:42.184Z,974.85
2023-01-17T13:09:42.170Z,974.90
2023-01-17T13:10:42.169Z,974.90
2023-01-17T13:11:42.163Z,974.86
2023-01-17T13:12:47.164Z,974.82
2023-01-17T13:13:42.187Z,974.78
2023-01-17T13:14:42.113Z,974.70
2023-01-17T13:15:42.109Z,974.72
2023-01-17T13:16:42.390Z,974.76
2023-01-17T13:17:42.082Z,974.73
2023-01-17T13:18:42.072Z,974.80
2023-01-17T13:19:42.071Z,974.69
2023-01-17T13:20:42.047Z,974.66
2023-01-17T13:21:42.115Z,974.68
2023-01-17T13:22:42.029Z,974.66
2023-01-17T13:23:47.055Z,974.65
2023-01-17T13:24:41.999Z,974.74
2023-01-17T13:25:42.012Z,974.63
2023-01-17T13:26:42.008Z,974.60
2023-01-17T13:27:41.964Z,974.58
2023-01-17T13:28:41.963Z,974.59
2023-01-17T13:29:41.954Z,974.46
2023-01-17T13:30:41.938Z,974.47
2023-01-17T13:31:41.951Z,974.43
2023-01-17T13:32:41.952Z,974.39
2023-01-17T13:33:41.901Z,974.48
2023-01-17T13:34:46.910Z,974.47
2023-01-17T13:35:41.878Z,974.42
2023-01-17T13:36:41.882Z,974.44
2023-01-17T13:37:41.904Z,974.43
2023-01-17T13:38:41.842Z,974.34
2023-01-17T13:39:41.835Z,974.35
2023-01-17T13:40:41.821Z,974.36
2023-01-17T13:41:41.838Z,974.35
2023-01-17T13:42:41.828Z,974.32
2023-01-17T13:43:41.847Z,974.29
2023-01-17T13:44:41.847Z,974.39
2023-01-17T13:45:46.820Z,974.44
2023-01-17T13:46:41.783Z,974.38
2023-01-17T13:47:41.762Z,974.42
2023-01-17T13:48:41.808Z,974.51
2023-01-17T13:49:41.795Z,974.41
2023-01-17T13:50:41.807Z,974.41
2023-01-17T13:51:41.692Z,974.42
2023-01-17T13:52:41.693Z,974.44
2023-01-17T13:53:41.691Z,974.44
2023-01-17T13:54:41.711Z,974.45
2023-01-17T13:55:41.777Z,974.44
2023-01-17T13:56:46.660Z,974.42
2023-01-17T13:57:41.638Z,974.40
2023-01-17T13:58:41.655Z,974.36
2023-01-17T13:59:41.600Z,974.47
2023-01-17T14:00:41.700Z,974.47
2023-01-17T14:01:41.657Z,974.53
2023-01-17T14:02:41.661Z,974.49
2023-01-17T14:03:41.571Z,974.44
2023-01-17T14:04:41.591Z,974.53
2023-01-17T14:05:41.605Z,974.47
2023-01-17T14:06:41.609Z,974.43
2023-01-17T14:07:46.563Z,974.48
2023-01-17T14:08:41.600Z,974.45
2023-01-17T14:09:41.597Z,974.53
2023-01-17T14:10:41.618Z,974.54
2023-01-17T14:11:41.530Z,974.62
2023-01-17T14:12:41.516Z,974.60
2023-01-17T14:13:41.565Z,974.67
2023-01-17T14:14:41.511Z,974.68
2023-01-17T14:15:41.429Z,974.61
2023-01-17T14:16:41.564Z,974.64
2023-01-17T14:17:41.468Z,974.67
2023-01-17T14:18:46.488Z,974.67
2023-01-17T14:19:41.444Z,974.68
2023-01-17T14:20:41.462Z,974.70
2023-01-17T14:21:41.355Z,974.61
2023-01-17T14:22:41.406Z,974.64
2023-01-17T14:23:41.344Z,974.69
2023-01-17T14:24:41.328Z,974.68
2023-01-17T14:25:41.312Z,974.63
2023-01-17T14:26:41.352Z,974.60
2023-01-17T14:27:41.292Z,974.62
2023-01-17T14:28:41.288Z,974.63
2023-01-17T14:29:46.287Z,974.71
2023-01-17T14:30:41.273Z,974.65
2023-01-17T14:31:41.301Z,974.64
2023-01-17T14:32:41.233Z,974.65
2023-01-17T14:33:41.234Z,974.67
2023-01-17T14:34:41.275Z,974.66
2023-01-17T14:35:41.199Z,974.64
2023-01-17T14:36:41.209Z,974.68
2023-01-17T14:37:41.215Z,974.64
2023-01-17T14:38:41.199Z,974.64
2023-01-17T14:39:41.179Z,974.67
2023-01-17T14:40:46.168Z,974.62
2023-01-17T14:41:41.138Z,974.68
2023-01-17T14:42:41.124Z,974.71
2023-01-17T14:43:41.123Z,974.70
2023-01-17T14:44:41.125Z,974.73
2023-01-17T14:45:41.128Z,974.74
2023-01-17T14:46:41.079Z,974.74
2023-01-17T14:47:41.074Z,974.73
2023-01-17T14:48:41.112Z,974.72
2023-01-17T14:49:41.135Z,974.76
2023-01-17T14:50:41.037Z,974.76
2023-01-17T14:51:46.064Z,974.72
2023-01-17T14:52:41.036Z,974.73
2023-01-17T14:53:41.145Z,974.71
2023-01-17T14:54:40.989Z,974.77
2023-01-17T14:55:40.978Z,974.74
2023-01-17T14:56:40.972Z,974.73
2023-01-17T14:57:40.988Z,974.75
2023-01-17T14:58:40.976Z,974.76
2023-01-17T14:59:40.937Z,974.76
2023-01-17T15:00:40.944Z,974.65
2023-01-17T15:01:41.028Z,974.74
2023-01-17T15:02:46.078Z,974.71
2023-01-17T15:03:40.917Z,974.72
2023-01-17T15:04:40.903Z,974.76
2023-01-17T15:05:40.895Z,974.79
2023-01-17T15:06:40.905Z,974.85
2023-01-17T15:07:40.869Z,974.78
2023-01-17T15:08:40.857Z,974.81
2023-01-17T15:09:40.867Z,974.90
2023-01-17T15:10:40.858Z,974.90
2023-01-17T15:11:40.815Z,974.84
2023-01-17T15:12:40.785Z,974.83
2023-01-17T15:13:45.828Z,974.80
2023-01-17T15:14:40.775Z,974.87
2023-01-17T15:15:40.770Z,974.78
2023-01-17T15:16:40.912Z,974.81
2023-01-17T15:17:40.742Z,974.86
2023-01-17T15:18:42.584Z,974.81
2023-01-17T15:19:40.715Z,974.90
2023-01-17T15:20:40.717Z,974.82
2023-01-17T15:21:40.722Z,974.83
2023-01-17T15:22:40.689Z,974.88
2023-01-17T15:23:40.689Z,974.85
2023-01-17T15:24:45.727Z,974.82